LFKBLFKF

Guest
Details From LFKB - Bastia Poretta
To LFKF - Figari Sud Corse
Flight Number -
Tags generated
Created
Modified
Stats Distance 67 nm / 124 km
Max Altitude 6,300 ft / 1,920 m
Waypoints 3
Social Downloads 1
Likes 0
Share

Download

Looking for another format? Having issues loading an existing format? Contact us
Advertisement - Login to hide

Notes

Basic altitude profile: - Ascent Rate: 2500ft/min - Ascent Speed: 250kts - Cruise Altitude: 25000ft - Cruise Speed: 420kts - Descent Rate: 1500ft/min - Descent Speed: 250kts Options: - Use NATs: yes - Use PACOTS: yes - Use low airways: yes - Use high airways: yes

Route

LFKB SZA LFKF

ID Type Via Altitude (ft/m) Position (lat/lon) Dist (leg/tot) Name
O LFKB APT - 0 / 0 42.55251 / 9.48371 - / 0 nm Bastia Poretta
SZA VOR - 6,300 / 1,920 41.93747 / 9.41622 37 / 37 nm
O LFKF APT - 0 / 0 41.50206 / 9.09696 29 / 66 nm Figari Sud Corse

Altitude Profile

Advertisement - Login to hide

LFKB

Details ICAO LFKB (BIA)
Name Bastia Poretta
Region France
Timezone Europe/Paris (UTC+1.0)
Stats Elevation 24 ft / 7 m (AMSL)
Location 42.552600° 9.483750°
Runways 1
Magnetic Variation 2.806° E

METAR

LFKB 020930Z AUTO 22003KT 190V260 9999 FEW029 12/06 Q1006 TEMPO SHRA SCT026TCU BKN033

Decode

TAF

TAF LFKB 020800Z 0209/0309 32008KT 9999 SCT030 TX13/0212Z TN06/0304Z TEMPO 0209/0303 SHRA SCT026TCU BKN033

Decode

Departure Runways

ID Width Length Bearing (true/mag) Surface Threshold Overrun Markings Lighting
16 148 ft / 45 m 8,273 ft / 2,522 m 162.83° / 160.03° ASPHALT 0 ft / 0 m 102 ft / 31 m APP CENTERLINE EDGE THRESHOLD TDZ REIL-OMNI
34 148 ft / 45 m 8,273 ft / 2,522 m 342.84° / 340.03° ASPHALT 0 ft / 0 m 0 ft / 0 m PREC-APP CENTERLINE EDGE THRESHOLD TDZ REIL-OMNI

LFKF

Details ICAO LFKF (FSC)
Name Figari Sud Corse
Region France
Timezone Europe/Paris (UTC+1.0)
Stats Elevation 86 ft / 26 m (AMSL)
Location 41.502300° 9.096970°
Runways 1
Magnetic Variation 2.693° E

METAR

LFKF 020930Z AUTO 25011KT 9999 BKN041 BKN072 BKN090 12/05 Q1007 TEMPO SHRA SCT020TCU BKN033

Decode

TAF

TAF LFKF 020800Z 0209/0309 25012KT 9999 SCT033 TEMPO 0209/0224 28020KT SHRA SCT020TCU BKN033

Decode

Destination Runways

ID Width Length Bearing (true/mag) Surface Threshold Overrun Markings Lighting
05 148 ft / 45 m 8,144 ft / 2,482 m 47.43° / 44.74° CONCRETE 0 ft / 0 m 0 ft / 0 m APP CENTERLINE EDGE THRESHOLD
23 148 ft / 45 m 8,144 ft / 2,482 m 227.45° / 224.76° CONCRETE 0 ft / 0 m 0 ft / 0 m PREC-APP CENTERLINE EDGE THRESHOLD

Approach Navaids

Runway Type Ident Frequency Range Bearing (true/mag) Slope Elevation
23 OM OM - - 227.43° / 224.74 ° - 87 ft / 27 m (AMSL)
23 LOC-ILS GR 110.50 MHz 18 nm / 33 km 227.44° / 224.75 ° - 86 ft / 26 m (AMSL)
23 GS GR 110.50 MHz 10 nm / 19 km 227.44° / 224.75 ° 3.50° 86 ft / 26 m (AMSL)
23 DME GR 110.50 MHz 18 nm / 33 km - - 131 ft / 40 m (AMSL)

Popular Alternatives